Terminal Aerodrome Forecast
Issued by NWS

Home | Current Version | Previous Version | Text Only | Print | Product List | Glossary On
Versions: 1 2 3 4 5 6 7 8 9 10 11 12 13 14 15 16
000
FTUS43 KICT 280520
TAFRSL
TAF
KRSL 280520Z 2806/2906 15009KT P6SM VCTS SCT035CB BKN100
      TEMPO 2806/2810 -TSRA
     FM281000 15010KT P6SM VCTS BKN025CB
     FM281500 18018G25KT P6SM BKN050
     FM290300 18012KT P6SM SCT030 BKN120=

USA.gov is the U.S. government's official web portal to all federal, state and local government web resources and services.